Time;durP1;ratioP1;P1;durP2;ratioP2;P2;SDS_P1;SDS_P2;PMS_P1;PMS_P2;Temp;Humidity;BMP_temperature;BMP_pressure;BME280_temperature;BME280_humidity;BME280_pressure;Samples;Min_cycle;Max_cycle;Signal;HPM_P1;HPM_P2
2023/02/24 00:02:18;;;;;;;3.58;1.48;;;17.50;83.90;;;;;;10482594;28;20060;-26
2023/02/24 00:07:20;;;;;;;1.95;1.13;;;17.90;79.10;;;;;;10489374;28;20122;-26
2023/02/24 00:12:23;;;;;;;3.30;1.20;;;17.90;79.10;;;;;;10494244;28;20167;-26
2023/02/24 00:17:29;;;;;;;4.22;2.20;;;18.00;78.40;;;;;;10476105;28;20935;-25
2023/02/24 00:22:31;;;;;;;5.07;1.05;;;15.60;92.00;;;;;;10487767;28;20040;-26
2023/02/24 00:27:32;;;;;;;2.43;1.03;;;17.00;86.40;;;;;;10485901;28;20123;-26
2023/02/24 00:32:36;;;;;;;3.95;1.15;;;17.70;71.70;;;;;;10471807;28;20072;-25
2023/02/24 00:37:37;;;;;;;6.85;1.40;;;17.70;77.50;;;;;;10486492;28;20060;-25
2023/02/24 00:42:41;;;;;;;5.00;1.27;;;17.60;80.00;;;;;;10475881;28;20095;-26
2023/02/24 00:47:44;;;;;;;4.88;1.30;;;17.70;78.30;;;;;;10479617;28;20474;-27
2023/02/24 00:52:48;;;;;;;4.78;1.15;;;17.80;77.20;;;;;;10484020;28;20047;-27
2023/02/24 00:57:50;;;;;;;5.03;1.25;;;16.90;84.80;;;;;;10477978;28;20052;-28
2023/02/24 01:02:54;;;;;;;5.60;1.20;;;17.30;81.50;;;;;;10481851;28;20053;-28
2023/02/24 01:07:55;;;;;;;2.08;0.93;;;17.40;73.40;;;;;;10492750;28;20094;-26
2023/02/24 01:12:57;;;;;;;4.80;1.30;;;16.80;85.90;;;;;;10479187;28;20139;-27
2023/02/24 01:18:00;;;;;;;3.60;1.33;;;17.60;78.10;;;;;;10480697;28;20072;-27
2023/02/24 01:23:02;;;;;;;4.03;1.10;;;16.10;86.70;;;;;;10494868;28;20076;-26
2023/02/24 01:28:04;;;;;;;3.87;0.97;;;16.50;81.90;;;;;;10487797;28;20064;-27
2023/02/24 01:33:07;;;;;;;2.45;0.98;;;16.40;84.90;;;;;;10489926;28;20537;-26
2023/02/24 01:38:10;;;;;;;2.42;0.80;;;17.50;77.80;;;;;;10485180;28;20466;-27
2023/02/24 01:43:12;;;;;;;6.45;1.17;;;17.60;77.00;;;;;;10488778;28;20523;-25
2023/02/24 01:48:16;;;;;;;2.10;1.00;;;17.50;74.90;;;;;;10481219;28;20067;-26
2023/02/24 01:53:19;;;;;;;1.67;0.80;;;17.40;76.20;;;;;;10469927;28;20115;-25
2023/02/24 01:58:26;;;;;;;5.88;1.20;;;15.70;90.30;;;;;;10475775;28;20041;-27
2023/02/24 02:03:33;;;;;;;2.90;1.02;;;15.10;92.20;;;;;;10455779;28;20098;-28
2023/02/24 02:08:39;;;;;;;6.15;1.27;;;15.70;88.60;;;;;;10487699;28;20125;-26
2023/02/24 02:13:43;;;;;;;5.97;0.98;;;14.80;90.20;;;;;;10486584;28;20098;-25
2023/02/24 02:18:54;;;;;;;4.03;1.00;;;13.80;96.00;;;;;;10473763;28;20095;-27
2023/02/24 02:24:04;;;;;;;4.15;0.80;;;13.10;93.70;;;;;;10487810;28;20048;-24
2023/02/24 02:29:33;;;;;;;8.95;1.20;;;14.20;94.50;;;;;;10476084;28;20047;-28
2023/02/24 02:34:45;;;;;;;3.38;1.00;;;15.20;86.90;;;;;;10471370;28;20131;-25
2023/02/24 02:39:57;;;;;;;2.67;0.85;;;16.20;81.00;;;;;;10483632;28;20041;-25
2023/02/24 02:45:06;;;;;;;2.43;0.97;;;16.50;83.50;;;;;;10484339;28;20507;-25
2023/02/24 02:50:18;;;;;;;1.88;0.77;;;16.60;81.50;;;;;;10486752;28;20450;-25
2023/02/24 02:55:25;;;;;;;5.57;1.13;;;16.30;84.60;;;;;;10476127;28;20711;-24
2023/02/24 03:00:33;;;;;;;5.28;1.00;;;12.50;53.40;;;;;;10485739;28;20516;-26
2023/02/24 03:05:45;;;;;;;4.65;0.80;;;12.60;72.10;;;;;;10482645;28;20033;-25
2023/02/24 03:10:49;;;;;;;2.85;0.93;;;14.30;94.40;;;;;;10488900;28;20137;-25
2023/02/24 03:15:53;;;;;;;2.58;1.08;;;14.00;80.80;;;;;;10488434;28;20584;-26
2023/02/24 03:21:03;;;;;;;6.53;0.70;;;14.00;97.10;;;;;;10491947;28;20388;-25
2023/02/24 03:26:17;;;;;;;4.45;1.02;;;11.40;99.90;;;;;;10485858;28;20114;-25
2023/02/24 03:31:27;;;;;;;3.22;0.70;;;13.40;93.70;;;;;;10481693;28;20043;-24
2023/02/24 03:36:32;;;;;;;7.35;0.90;;;13.10;67.00;;;;;;10491770;28;20435;-25
2023/02/24 03:41:39;;;;;;;6.53;1.05;;;11.00;99.90;;;;;;10490673;28;20623;-25
2023/02/24 03:46:41;;;;;;;1.75;0.90;;;11.30;99.90;;;;;;10491186;28;20033;-29
2023/02/24 03:51:55;;;;;;;9.63;1.20;;;12.50;99.90;;;;;;10489285;28;20080;-25
2023/02/24 03:57:11;;;;;;;7.32;0.90;;;11.70;99.60;;;;;;10486382;28;20053;-26
2023/02/24 04:02:20;;;;;;;4.68;0.85;;;13.10;98.80;;;;;;10477878;28;20064;-26
2023/02/24 04:07:34;;;;;;;5.95;1.02;;;10.50;99.50;;;;;;10484918;28;20044;-26
2023/02/24 04:12:42;;;;;;;2.95;1.02;;;11.20;86.80;;;;;;10489987;28;20047;-26
2023/02/24 04:17:46;;;;;;;3.65;1.02;;;10.10;99.90;;;;;;10491459;28;20500;-25
2023/02/24 04:22:53;;;;;;;7.60;1.25;;;11.80;99.90;;;;;;10495478;28;20111;-25
2023/02/24 04:27:59;;;;;;;4.38;0.82;;;11.70;83.90;;;;;;10485259;28;20528;-27
2023/02/24 04:33:02;;;;;;;8.48;1.17;;;10.90;99.90;;;;;;10472987;28;20100;-27
2023/02/24 04:38:05;;;;;;;4.00;0.85;;;11.00;81.90;;;;;;10477507;28;20045;-25
2023/02/24 04:43:07;;;;;;;4.15;1.33;;;10.50;99.90;;;;;;10492134;28;20067;-26
2023/02/24 04:48:11;;;;;;;8.00;1.47;;;8.80;90.70;;;;;;10495161;28;20055;-26
2023/02/24 04:53:16;;;;;;;7.78;1.60;;;11.20;99.90;;;;;;10465002;28;20075;-24
2023/02/24 04:58:20;;;;;;;7.97;1.75;;;9.30;90.10;;;;;;10468017;28;20126;-25
2023/02/24 05:03:27;;;;;;;7.15;1.67;;;8.50;94.90;;;;;;10469733;28;20057;-24
2023/02/24 05:08:30;;;;;;;7.55;1.27;;;8.80;99.90;;;;;;10461912;28;20467;-24
2023/02/24 05:13:36;;;;;;;12.82;1.17;;;11.20;96.90;;;;;;10463597;28;20072;-27
2023/02/24 05:18:38;;;;;;;5.80;1.13;;;11.50;79.00;;;;;;10469019;28;20044;-26
2023/02/24 05:23:43;;;;;;;6.47;1.03;;;9.40;99.90;;;;;;10475054;28;20465;-25
2023/02/24 05:28:51;;;;;;;10.30;1.45;;;11.60;99.90;;;;;;10470417;28;20063;-25
2023/02/24 05:33:56;;;;;;;4.88;0.88;;;11.80;69.20;;;;;;10477923;28;20041;-25
2023/02/24 05:39:05;;;;;;;8.73;1.60;;;11.10;99.90;;;;;;10457138;28;20392;-25
2023/02/24 05:44:10;;;;;;;11.63;1.48;;;11.50;67.50;;;;;;10471319;28;20033;-25
2023/02/24 05:49:14;;;;;;;10.35;1.77;;;10.70;99.90;;;;;;10476391;28;20466;-25
2023/02/24 05:54:18;;;;;;;7.38;1.13;;;8.90;99.20;;;;;;10485223;28;20461;-27
2023/02/24 05:59:21;;;;;;;7.95;1.60;;;11.30;99.90;;;;;;10470093;28;20049;-25
2023/02/24 06:04:38;;;;;;;3.92;1.30;;;9.50;98.80;;;;;;10480333;28;20143;-27
2023/02/24 06:09:43;;;;;;;13.70;1.42;;;10.00;99.90;;;;;;10471860;28;20041;-24
2023/02/24 06:14:45;;;;;;;10.02;2.47;;;9.60;99.90;;;;;;10481456;28;20051;-26
2023/02/24 06:19:51;;;;;;;12.03;1.87;;;8.90;99.90;;;;;;10479584;28;20517;-26
2023/02/24 06:24:55;;;;;;;11.77;1.88;;;9.10;94.00;;;;;;10484151;28;20102;-26
2023/02/24 06:29:57;;;;;;;11.85;1.80;;;8.20;98.50;;;;;;10478460;28;20775;-30
2023/02/24 06:35:00;;;;;;;12.88;2.05;;;8.20;99.90;;;;;;10481497;28;20068;-26
2023/02/24 06:40:14;;;;;;;15.52;2.10;;;7.90;99.90;;;;;;10479471;28;20109;-25
2023/02/24 06:45:16;;;;;;;8.85;1.30;;;8.30;99.90;;;;;;10479986;28;20045;-25
2023/02/24 06:50:20;;;;;;;13.23;1.90;;;10.50;99.90;;;;;;10477745;28;20045;-26
2023/02/24 06:55:26;;;;;;;15.80;2.05;;;7.80;99.90;;;;;;10481231;28;20494;-25
2023/02/24 07:00:37;;;;;;;10.40;1.55;;;8.40;99.90;;;;;;10479732;28;20036;-25
2023/02/24 07:14:30;;;;;;;20.33;2.28;;;8.30;99.90;;;;;;10532178;27;1334050;-26
2023/02/24 07:19:32;;;;;;;13.15;3.15;;;8.10;99.90;;;;;;10537573;28;20068;-25
2023/02/24 07:24:37;;;;;;;10.32;2.25;;;7.60;99.90;;;;;;10532305;28;20067;-26
2023/02/24 07:29:41;;;;;;;14.07;3.30;;;7.20;99.90;;;;;;10558726;28;20032;-25
2023/02/24 07:34:42;;;;;;;;;;;7.90;99.90;;;;;;10533352;28;20063;-26
2023/02/24 07:39:44;;;;;;;12.02;2.15;;;10.20;99.90;;;;;;10562193;28;19916;-25
2023/02/24 07:44:48;;;;;;;14.80;1.77;;;7.10;99.90;;;;;;10564235;28;20536;-26
2023/02/24 07:49:50;;;;;;;9.90;2.08;;;7.10;99.90;;;;;;10543660;28;20067;-26
2023/02/24 07:54:53;;;;;;;15.20;1.92;;;7.60;99.90;;;;;;10553809;28;20051;-25
2023/02/24 07:59:58;;;;;;;12.43;2.10;;;7.40;99.90;;;;;;10551141;28;20032;-26
2023/02/24 08:05:01;;;;;;;11.18;1.63;;;7.30;99.90;;;;;;10528812;28;20036;-27
2023/02/24 08:10:12;;;;;;;18.90;2.33;;;7.40;99.90;;;;;;10538614;28;20067;-25
2023/02/24 08:15:22;;;;;;;27.50;2.92;;;7.00;99.90;;;;;;10535474;28;20044;-24
2023/02/24 08:20:24;;;;;;;20.33;2.38;;;7.40;99.90;;;;;;10528853;28;20051;-27
2023/02/24 08:25:34;;;;;;;9.18;1.20;;;7.50;99.90;;;;;;10497757;28;20066;-27
2023/02/24 08:30:43;;;;;;;14.57;2.13;;;9.60;99.90;;;;;;10500628;28;20056;-26
2023/02/24 08:35:45;;;;;;;17.60;2.13;;;7.20;99.90;;;;;;10501214;28;20145;-23
2023/02/24 08:40:50;;;;;;;12.45;2.08;;;7.40;99.90;;;;;;10520480;28;20824;-28
2023/02/24 08:45:56;;;;;;;21.35;3.35;;;7.70;99.90;;;;;;10517624;28;20032;-25
2023/02/24 08:51:03;;;;;;;24.98;3.10;;;7.90;99.90;;;;;;10520517;28;20051;-29
2023/02/24 08:56:08;;;;;;;16.00;3.00;;;7.80;99.90;;;;;;10512006;28;20053;-27
2023/02/24 09:01:18;;;;;;;18.08;3.50;;;8.50;99.90;;;;;;10505333;28;20426;-26
2023/02/24 09:06:25;;;;;;;15.15;2.47;;;7.70;99.90;;;;;;10513757;28;20047;-26
2023/02/24 09:11:27;;;;;;;17.05;2.45;;;7.50;99.90;;;;;;10507702;28;20043;-28
2023/02/24 09:16:30;;;;;;;8.73;2.25;;;9.70;99.90;;;;;;10509084;28;20115;-30
2023/02/24 09:26:57;;;;;;;18.45;3.22;;;7.70;99.90;;;;;;10519509;28;19943;-26
2023/02/24 09:32:08;;;;;;;16.58;3.13;;;7.90;99.90;;;;;;10509772;28;20129;-28
2023/02/24 09:37:24;;;;;;;14.48;3.20;;;9.40;99.90;;;;;;10513562;28;20067;-25
2023/02/24 09:42:31;;;;;;;13.67;3.83;;;8.30;99.90;;;;;;10505587;28;20059;-26
2023/02/24 09:47:55;;;;;;;14.10;3.60;;;8.40;99.90;;;;;;10504694;28;20458;-26
2023/02/24 09:53:12;;;;;;;14.38;4.10;;;8.50;99.90;;;;;;10505475;28;20040;-26
2023/02/24 09:58:23;;;;;;;17.40;6.65;;;8.40;99.90;;;;;;10500197;28;20115;-29
2023/02/24 10:03:42;;;;;;;24.65;7.35;;;7.60;99.90;;;;;;10516251;28;20094;-26
2023/02/24 10:08:48;;;;;;;10.90;5.30;;;7.60;99.90;;;;;;10522823;28;20047;-26
2023/02/24 10:13:56;;;;;;;24.42;7.90;;;8.10;99.90;;;;;;10520556;28;20044;-24
2023/02/24 10:19:13;;;;;;;11.63;4.72;;;7.50;99.90;;;;;;10515730;28;20543;-26
2023/02/24 10:24:23;;;;;;;17.17;7.68;;;9.60;99.90;;;;;;10509285;28;20509;-26
2023/02/24 10:29:43;;;;;;;25.70;7.68;;;8.30;99.90;;;;;;10499160;28;20044;-27
2023/02/24 10:34:48;;;;;;;22.27;10.43;;;8.40;99.90;;;;;;10524485;28;20125;-26
2023/02/24 10:39:50;;;;;;;15.10;6.60;;;7.10;99.90;;;;;;10507412;28;20064;-26
2023/02/24 10:45:10;;;;;;;19.73;10.13;;;8.50;99.90;;;;;;10514935;28;20048;-26
2023/02/24 10:50:27;;;;;;;15.75;7.50;;;7.30;99.90;;;;;;10510867;28;20664;-27
2023/02/24 10:55:52;;;;;;;18.13;5.45;;;8.00;99.90;;;;;;10519160;28;20469;-29
2023/02/24 11:01:11;;;;;;;12.48;5.05;;;8.70;99.90;;;;;;10513831;28;20386;-27
2023/02/24 11:06:51;;;;;;;11.80;7.63;;;9.30;99.90;;;;;;10507527;28;20068;-27
2023/02/24 11:17:25;;;;;;;17.92;8.82;;;7.90;99.90;;;;;;10511189;28;20080;-29
2023/02/24 11:22:33;;;;;;;15.05;5.22;;;8.10;99.90;;;;;;10509718;28;20170;-24
2023/02/24 11:27:35;;;;;;;9.50;5.32;;;8.90;99.90;;;;;;10515148;28;20131;-26
2023/02/24 11:32:50;;;;;;;6.78;3.55;;;9.10;99.90;;;;;;10510268;28;20047;-26
2023/02/24 11:38:01;;;;;;;14.15;6.10;;;9.70;99.90;;;;;;10514012;28;20055;-27
2023/02/24 11:43:06;;;;;;;16.38;8.05;;;9.60;99.90;;;;;;10501576;28;20044;-28
2023/02/24 11:48:13;;;;;;;8.18;3.42;;;8.90;99.90;;;;;;10517772;28;20137;-25
2023/02/24 11:53:27;;;;;;;21.13;6.60;;;9.90;99.90;;;;;;10503419;28;20067;-26
2023/02/24 11:58:32;;;;;;;;;;;9.70;99.90;;;;;;10511038;28;20106;-26
2023/02/24 12:03:39;;;;;;;27.05;8.85;;;9.80;99.90;;;;;;10505751;28;19916;-26
2023/02/24 12:08:45;;;;;;;30.50;6.25;;;9.30;99.90;;;;;;10505512;28;20048;-26
2023/02/24 12:13:52;;;;;;;22.50;4.72;;;9.90;99.90;;;;;;10506221;28;20238;-26
2023/02/24 12:19:02;;;;;;;22.00;5.57;;;9.50;99.90;;;;;;10520074;28;20478;-25
2023/02/24 12:24:11;;;;;;;25.30;4.13;;;10.90;99.90;;;;;;10504951;28;20457;-26
2023/02/24 12:29:41;;;;;;;26.80;4.30;;;9.90;99.90;;;;;;10505572;28;20058;-26
2023/02/24 12:34:52;;;;;;;28.85;4.25;;;9.40;99.90;;;;;;10515974;28;20074;-26
2023/02/24 12:40:03;;;;;;;30.75;4.25;;;9.40;99.90;;;;;;10520832;28;20067;-27
2023/02/24 12:45:15;;;;;;;32.22;3.78;;;9.00;99.90;;;;;;10514025;28;20123;-25
2023/02/24 12:50:29;;;;;;;15.52;3.45;;;9.20;99.90;;;;;;10519317;28;20133;-25
2023/02/24 12:55:41;;;;;;;18.13;3.00;;;9.60;99.90;;;;;;10511310;28;20481;-26
2023/02/24 13:00:53;;;;;;;33.47;5.03;;;9.50;99.90;;;;;;10518661;28;20043;-25
2023/02/24 13:06:06;;;;;;;22.77;3.50;;;10.00;99.90;;;;;;10508029;28;20121;-27
2023/02/24 13:11:16;;;;;;;29.80;4.20;;;10.60;99.90;;;;;;10533776;28;20052;-26
2023/02/24 13:16:28;;;;;;;12.02;2.15;;;11.10;99.90;;;;;;10510948;28;21013;-26
2023/02/24 13:21:31;;;;;;;39.50;4.03;;;11.40;99.90;;;;;;10505779;28;20048;-25
2023/02/24 13:26:34;;;;;;;23.67;3.13;;;10.90;99.90;;;;;;10505235;28;20103;-28
2023/02/24 13:31:43;;;;;;;24.30;4.00;;;10.70;99.90;;;;;;10503358;28;20525;-27
2023/02/24 13:36:50;;;;;;;32.45;3.63;;;11.30;99.90;;;;;;10496369;28;20425;-28
2023/02/24 13:42:02;;;;;;;24.00;3.05;;;11.20;99.90;;;;;;10503476;28;20179;-25
2023/02/24 13:47:36;;;;;;;15.90;2.97;;;11.30;99.90;;;;;;10500251;28;20056;-25
2023/02/24 13:52:50;;;;;;;14.52;2.90;;;11.70;99.90;;;;;;10501493;28;20370;-27
2023/02/24 13:58:16;;;;;;;14.55;2.28;;;12.20;99.90;;;;;;10500345;28;20085;-25
2023/02/24 14:03:21;;;;;;;24.33;3.47;;;13.00;99.90;;;;;;10507005;28;20075;-26
2023/02/24 14:08:27;;;;;;;31.48;3.22;;;12.20;99.90;;;;;;10506076;28;20083;-26
2023/02/24 14:13:32;;;;;;;21.00;3.40;;;11.60;99.90;;;;;;10511045;28;20044;-25
2023/02/24 14:18:36;;;;;;;6.57;2.00;;;11.00;99.90;;;;;;10504059;28;20044;-24
2023/02/24 14:23:38;;;;;;;15.70;3.08;;;13.90;98.80;;;;;;10509283;28;20032;-27
2023/02/24 14:28:42;;;;;;;7.18;1.95;;;12.20;99.90;;;;;;10504331;28;20040;-27
2023/02/24 14:33:45;;;;;;;17.05;2.78;;;13.30;99.90;;;;;;10512269;28;20052;-25
2023/02/24 14:38:46;;;;;;;;;;;12.10;97.00;;;;;;10506788;28;20052;-27
2023/02/24 14:43:50;;;;;;;6.82;1.73;;;13.90;99.90;;;;;;10494685;28;19920;-28
2023/02/24 14:48:54;;;;;;;10.13;2.00;;;13.80;89.30;;;;;;10504824;28;20046;-29
2023/02/24 14:53:59;;;;;;;11.48;1.35;;;13.10;99.90;;;;;;10505805;28;20135;-25
2023/02/24 14:59:06;;;;;;;8.02;1.00;;;11.80;99.90;;;;;;10519786;28;20797;-27
2023/02/24 15:04:13;;;;;;;10.68;1.50;;;14.60;99.80;;;;;;10516024;28;20071;-26
2023/02/24 15:09:19;;;;;;;9.05;1.48;;;13.70;99.90;;;;;;10517404;28;20048;-24
2023/02/24 15:14:26;;;;;;;14.85;2.17;;;13.60;99.90;;;;;;10516013;28;20711;-26
2023/02/24 15:19:34;;;;;;;9.73;1.77;;;12.90;97.30;;;;;;10506370;28;20143;-27
2023/02/24 15:24:36;;;;;;;9.20;1.60;;;13.30;96.70;;;;;;10499775;28;20059;-26
2023/02/24 15:29:40;;;;;;;8.80;2.17;;;14.30;96.20;;;;;;10513690;28;20044;-25
2023/02/24 15:34:45;;;;;;;5.70;1.15;;;14.40;98.40;;;;;;10510630;28;20521;-26
2023/02/24 15:39:50;;;;;;;9.30;1.55;;;13.20;99.90;;;;;;10505971;28;20060;-25
2023/02/24 15:44:55;;;;;;;6.75;1.20;;;12.70;99.90;;;;;;10517473;28;20470;-25
2023/02/24 15:49:57;;;;;;;11.13;1.58;;;14.00;99.90;;;;;;10515346;28;20036;-26
2023/02/24 15:55:01;;;;;;;7.23;1.30;;;13.80;99.90;;;;;;10522242;28;20055;-27
2023/02/24 16:00:11;;;;;;;7.10;1.25;;;14.50;99.90;;;;;;10510198;28;20392;-26
2023/02/24 16:05:14;;;;;;;8.38;1.15;;;15.40;97.30;;;;;;10512921;28;20460;-26
2023/02/24 16:10:19;;;;;;;13.02;1.70;;;13.40;99.90;;;;;;10509675;28;20413;-26
2023/02/24 16:15:27;;;;;;;4.63;1.25;;;13.20;99.90;;;;;;10516610;28;20046;-25
2023/02/24 16:20:31;;;;;;;7.13;1.27;;;15.10;99.60;;;;;;10518608;28;20036;-26
2023/02/24 16:25:38;;;;;;;2.92;1.58;;;15.70;97.70;;;;;;10505753;28;20044;-30
2023/02/24 16:30:41;;;;;;;5.80;1.20;;;15.40;91.30;;;;;;10503098;28;20123;-28
2023/02/24 16:35:44;;;;;;;8.05;1.33;;;15.80;93.60;;;;;;10499644;28;20048;-27
2023/02/24 16:40:47;;;;;;;12.27;2.00;;;16.40;94.30;;;;;;10524257;28;20067;-25
2023/02/24 16:45:53;;;;;;;7.28;1.33;;;12.70;90.60;;;;;;10514057;28;20045;-27
2023/02/24 16:50:55;;;;;;;10.45;1.83;;;12.90;97.90;;;;;;10517312;28;20474;-25
2023/02/24 16:55:57;;;;;;;12.30;2.30;;;12.50;99.90;;;;;;10505292;28;20056;-27
2023/02/24 17:01:02;;;;;;;9.00;1.05;;;12.80;99.90;;;;;;10517312;28;20046;-27
2023/02/24 17:06:05;;;;;;;9.77;1.10;;;15.70;98.10;;;;;;10514251;28;20775;-26
2023/02/24 17:11:12;;;;;;;5.80;1.30;;;12.20;99.90;;;;;;10515862;28;20136;-28
2023/02/24 17:16:15;;;;;;;4.10;1.02;;;14.70;99.90;;;;;;10524391;28;20503;-26
2023/02/24 17:21:19;;;;;;;9.38;1.23;;;14.90;99.90;;;;;;10514489;28;20075;-28
2023/02/24 17:26:21;;;;;;;16.05;1.63;;;13.30;99.90;;;;;;10516590;28;20044;-26
2023/02/24 17:31:30;;;;;;;9.87;1.90;;;12.60;96.30;;;;;;10519451;28;20040;-26
2023/02/24 17:36:32;;;;;;;9.48;1.95;;;12.60;99.90;;;;;;10530644;28;20052;-25
2023/02/24 17:41:34;;;;;;;5.63;1.08;;;13.30;99.90;;;;;;10532546;28;20448;-29
2023/02/24 17:46:38;;;;;;;12.10;1.80;;;14.50;96.00;;;;;;10518520;28;20420;-28
2023/02/24 17:51:39;;;;;;;12.68;1.40;;;15.30;95.20;;;;;;10514117;28;20111;-26
2023/02/24 17:56:41;;;;;;;6.57;1.40;;;16.10;90.60;;;;;;10498996;28;20056;-27
2023/02/24 18:01:45;;;;;;;5.10;1.10;;;15.60;96.00;;;;;;10503792;28;20685;-26
2023/02/24 18:06:46;;;;;;;7.82;1.08;;;16.00;96.30;;;;;;10525527;28;20506;-26
2023/02/24 18:11:48;;;;;;;11.50;1.80;;;12.50;99.90;;;;;;10516428;28;20044;-27
2023/02/24 18:16:52;;;;;;;13.60;2.20;;;13.50;99.90;;;;;;10520069;28;20041;-25
2023/02/24 18:21:54;;;;;;;8.35;1.42;;;13.10;99.90;;;;;;10519180;28;20380;-26
2023/02/24 18:26:56;;;;;;;10.37;2.37;;;13.30;99.90;;;;;;10517775;28;20087;-29
2023/02/24 18:31:59;;;;;;;8.50;1.93;;;13.80;99.90;;;;;;10514983;28;20517;-26
2023/02/24 18:37:01;;;;;;;10.00;1.90;;;13.70;99.90;;;;;;10513964;28;20531;-28
2023/02/24 18:42:03;;;;;;;11.73;2.33;;;11.80;99.90;;;;;;10516362;28;20052;-27
2023/02/24 18:47:08;;;;;;;19.90;2.47;;;12.60;99.90;;;;;;10508476;28;20545;-26
2023/02/24 18:52:10;;;;;;;8.18;2.28;;;10.30;97.90;;;;;;10518740;28;20441;-26
2023/02/24 18:57:12;;;;;;;20.33;3.53;;;12.90;99.90;;;;;;10517261;28;20435;-26
2023/02/24 19:02:15;;;;;;;12.60;2.63;;;11.40;94.90;;;;;;10514879;28;20497;-25
2023/02/24 19:07:17;;;;;;;9.95;2.85;;;13.20;99.90;;;;;;10503211;28;20067;-26
2023/02/24 19:12:20;;;;;;;17.90;3.47;;;14.60;97.70;;;;;;10489855;28;20159;-26
2023/02/24 19:17:23;;;;;;;8.57;3.05;;;15.30;97.90;;;;;;10499858;28;20044;-26
2023/02/24 19:22:25;;;;;;;4.78;1.63;;;15.90;95.30;;;;;;10503715;28;20113;-25
2023/02/24 19:27:27;;;;;;;13.47;2.67;;;14.60;99.90;;;;;;10502977;28;20719;-28
2023/02/24 19:32:30;;;;;;;13.35;2.50;;;15.20;91.20;;;;;;10514076;28;20055;-25
2023/02/24 19:37:32;;;;;;;10.75;1.92;;;16.00;93.10;;;;;;10501066;28;20161;-26
2023/02/24 19:42:34;;;;;;;14.60;2.70;;;16.30;93.90;;;;;;10498426;28;20127;-25
2023/02/24 19:47:41;;;;;;;9.73;1.63;;;13.80;98.90;;;;;;10528709;28;20469;-24
2023/02/24 19:52:43;;;;;;;5.57;1.65;;;16.00;95.10;;;;;;10496045;28;20044;-27
2023/02/24 19:57:45;;;;;;;7.37;1.40;;;16.40;89.20;;;;;;10506089;28;20092;-24
2023/02/24 20:02:49;;;;;;;5.53;1.52;;;15.20;99.70;;;;;;10507742;28;20486;-28
2023/02/24 20:07:51;;;;;;;15.05;1.90;;;13.60;99.90;;;;;;10502959;28;20048;-24
2023/02/24 20:12:53;;;;;;;7.43;1.53;;;16.00;96.10;;;;;;10512138;28;20080;-26
2023/02/24 20:17:57;;;;;;;10.07;1.93;;;17.10;79.70;;;;;;10509944;28;20102;-26
2023/02/24 20:22:59;;;;;;;15.65;2.40;;;16.40;90.30;;;;;;10522651;28;20047;-24
2023/02/24 20:28:01;;;;;;;14.05;2.13;;;12.00;83.00;;;;;;10514241;28;20071;-24
2023/02/24 20:33:04;;;;;;;13.87;2.30;;;11.70;99.90;;;;;;10513329;28;20139;-25
2023/02/24 20:38:07;;;;;;;20.55;2.70;;;14.20;99.00;;;;;;10524504;28;20060;-26
2023/02/24 20:43:10;;;;;;;12.13;2.22;;;15.60;97.30;;;;;;10514988;28;20105;-26
2023/02/24 20:48:13;;;;;;;7.45;1.85;;;14.70;98.90;;;;;;10512847;28;20489;-24
2023/02/24 20:53:15;;;;;;;10.15;2.63;;;14.90;99.30;;;;;;10522948;28;20194;-24
2023/02/24 20:58:16;;;;;;;6.77;2.33;;;16.60;92.30;;;;;;10519087;28;20102;-23
2023/02/24 21:03:22;;;;;;;11.27;2.40;;;14.30;68.00;;;;;;10517841;28;20456;-23
2023/02/24 21:08:24;;;;;;;15.98;2.08;;;16.20;93.20;;;;;;10504704;28;20473;-25
2023/02/24 21:13:26;;;;;;;18.83;2.15;;;15.20;95.10;;;;;;10513717;28;20059;-24
2023/02/24 21:18:29;;;;;;;9.67;1.87;;;15.50;96.60;;;;;;10521404;28;20101;-24
2023/02/24 21:23:31;;;;;;;6.20;1.20;;;17.40;87.20;;;;;;10525567;28;20090;-25
2023/02/24 21:28:34;;;;;;;7.50;1.50;;;16.20;81.40;;;;;;10510562;28;20054;-24
2023/02/24 21:33:37;;;;;;;9.75;2.10;;;14.60;77.40;;;;;;10514949;28;20464;-24
2023/02/24 21:38:40;;;;;;;12.80;1.67;;;13.60;90.60;;;;;;10505331;28;20047;-24
2023/02/24 21:43:42;;;;;;;10.10;1.75;;;11.70;99.90;;;;;;10518381;28;20124;-25
2023/02/24 21:48:46;;;;;;;;;;;12.80;92.20;;;;;;10508606;28;20049;-24
2023/02/24 21:53:48;;;;;;;9.93;1.80;;;10.70;99.90;;;;;;10518964;28;20347;-27
2023/02/24 21:58:53;;;;;;;11.48;1.60;;;12.70;99.90;;;;;;10519659;28;20042;-25
2023/02/24 22:03:58;;;;;;;10.43;1.60;;;13.40;99.90;;;;;;10515349;28;20052;-26
2023/02/24 22:09:00;;;;;;;10.13;1.80;;;13.60;96.70;;;;;;10530451;28;20036;-25
2023/02/24 22:14:02;;;;;;;12.65;1.77;;;12.60;94.40;;;;;;10522310;28;20056;-26
2023/02/24 22:19:06;;;;;;;15.70;2.50;;;13.80;93.20;;;;;;10509709;28;20190;-26
2023/02/24 22:24:11;;;;;;;15.98;2.72;;;14.10;99.90;;;;;;10507221;28;20506;-26
2023/02/24 22:29:13;;;;;;;8.57;2.70;;;15.00;96.20;;;;;;10515660;28;20085;-25
2023/02/24 22:34:17;;;;;;;9.87;2.33;;;15.70;89.00;;;;;;10507173;28;20468;-25
2023/02/24 22:39:18;;;;;;;7.43;1.30;;;14.10;97.80;;;;;;10531116;28;20040;-24
2023/02/24 22:44:20;;;;;;;5.57;1.65;;;12.40;99.90;;;;;;10504803;28;20059;-23
2023/02/24 22:49:23;;;;;;;6.83;2.13;;;16.00;88.90;;;;;;10495823;28;20053;-25
2023/02/24 22:54:25;;;;;;;6.60;1.88;;;16.00;88.10;;;;;;10512804;28;20044;-26
2023/02/24 22:59:28;;;;;;;5.50;1.90;;;17.10;82.70;;;;;;10509713;28;20079;-25
2023/02/24 23:04:33;;;;;;;10.98;3.88;;;17.30;80.40;;;;;;10516790;28;20051;-24
2023/02/24 23:09:35;;;;;;;6.57;1.70;;;17.30;80.70;;;;;;10502010;28;20040;-26
2023/02/24 23:14:37;;;;;;;6.67;1.37;;;13.50;93.60;;;;;;10524771;28;20060;-26
2023/02/24 23:19:40;;;;;;;9.45;1.95;;;10.80;99.90;;;;;;10514405;28;20070;-24
2023/02/24 23:24:42;;;;;;;6.65;1.20;;;10.80;99.90;;;;;;10519374;28;20060;-25
2023/02/24 23:29:45;;;;;;;7.00;1.30;;;11.20;99.90;;;;;;10511649;28;20381;-23
2023/02/24 23:34:48;;;;;;;7.00;1.80;;;12.50;99.90;;;;;;10519545;28;20090;-25
2023/02/24 23:39:50;;;;;;;11.43;2.17;;;12.70;99.90;;;;;;10500686;28;20048;-25
2023/02/24 23:44:52;;;;;;;4.38;1.83;;;13.00;99.90;;;;;;10496345;28;20477;-24
2023/02/24 23:49:55;;;;;;;8.52;2.60;;;14.10;98.30;;;;;;10509289;28;20044;-24
2023/02/24 23:54:57;;;;;;;7.30;2.13;;;14.80;93.50;;;;;;10512364;28;20063;-28
2023/02/24 23:59:59;;;;;;;8.55;1.60;;;15.20;74.70;;;;;;10523772;28;20087;-25
